sensor_id;sensor_type;location;lat;lon;timestamp;P1;durP1;ratioP1;P2;durP2;ratioP2
69207;SDS011;70114;47.690;8.898;2024-01-30T00:01:18;8.50;;;2.30;;
69207;SDS011;70114;47.690;8.898;2024-01-30T00:03:43;9.63;;;2.73;;
69207;SDS011;70114;47.690;8.898;2024-01-30T00:06:09;10.37;;;2.73;;
69207;SDS011;70114;47.690;8.898;2024-01-30T00:08:34;8.87;;;2.40;;
69207;SDS011;70114;47.690;8.898;2024-01-30T00:11:00;8.95;;;3.05;;
69207;SDS011;70114;47.690;8.898;2024-01-30T00:13:25;9.03;;;2.63;;
69207;SDS011;70114;47.690;8.898;2024-01-30T00:15:51;8.88;;;2.53;;
69207;SDS011;70114;47.690;8.898;2024-01-30T00:18:16;12.90;;;3.03;;
69207;SDS011;70114;47.690;8.898;2024-01-30T00:20:42;10.37;;;3.03;;
69207;SDS011;70114;47.690;8.898;2024-01-30T00:23:08;9.88;;;2.83;;
69207;SDS011;70114;47.690;8.898;2024-01-30T00:25:33;11.07;;;3.33;;
69207;SDS011;70114;47.690;8.898;2024-01-30T00:27:59;9.70;;;2.60;;
69207;SDS011;70114;47.690;8.898;2024-01-30T00:30:24;13.10;;;3.28;;
69207;SDS011;70114;47.690;8.898;2024-01-30T00:32:49;12.33;;;3.50;;
69207;SDS011;70114;47.690;8.898;2024-01-30T00:35:15;11.57;;;3.33;;
69207;SDS011;70114;47.690;8.898;2024-01-30T00:37:40;12.27;;;3.40;;
69207;SDS011;70114;47.690;8.898;2024-01-30T00:40:05;11.00;;;3.40;;
69207;SDS011;70114;47.690;8.898;2024-01-30T00:42:31;11.30;;;3.85;;
69207;SDS011;70114;47.690;8.898;2024-01-30T00:44:57;10.80;;;3.20;;
69207;SDS011;70114;47.690;8.898;2024-01-30T00:47:23;11.43;;;3.58;;
69207;SDS011;70114;47.690;8.898;2024-01-30T00:49:48;11.83;;;3.43;;
69207;SDS011;70114;47.690;8.898;2024-01-30T00:52:14;12.48;;;3.70;;
69207;SDS011;70114;47.690;8.898;2024-01-30T00:54:40;11.93;;;3.95;;
69207;SDS011;70114;47.690;8.898;2024-01-30T00:57:06;12.17;;;4.03;;
69207;SDS011;70114;47.690;8.898;2024-01-30T00:59:32;13.52;;;3.80;;
69207;SDS011;70114;47.690;8.898;2024-01-30T01:01:57;10.30;;;3.47;;
69207;SDS011;70114;47.690;8.898;2024-01-30T01:04:23;11.27;;;3.90;;
69207;SDS011;70114;47.690;8.898;2024-01-30T01:06:48;12.33;;;4.13;;
69207;SDS011;70114;47.690;8.898;2024-01-30T01:09:14;12.77;;;4.25;;
69207;SDS011;70114;47.690;8.898;2024-01-30T01:11:39;12.37;;;3.87;;
69207;SDS011;70114;47.690;8.898;2024-01-30T01:14:04;12.13;;;4.13;;
69207;SDS011;70114;47.690;8.898;2024-01-30T01:16:30;13.57;;;4.32;;
69207;SDS011;70114;47.690;8.898;2024-01-30T01:18:55;11.97;;;3.90;;
69207;SDS011;70114;47.690;8.898;2024-01-30T01:21:21;10.97;;;3.83;;
69207;SDS011;70114;47.690;8.898;2024-01-30T01:23:46;11.75;;;3.90;;
69207;SDS011;70114;47.690;8.898;2024-01-30T01:26:12;12.60;;;3.70;;
69207;SDS011;70114;47.690;8.898;2024-01-30T01:28:39;11.67;;;4.37;;
69207;SDS011;70114;47.690;8.898;2024-01-30T01:31:05;13.07;;;3.80;;
69207;SDS011;70114;47.690;8.898;2024-01-30T01:33:31;13.33;;;4.07;;
69207;SDS011;70114;47.690;8.898;2024-01-30T01:35:58;12.75;;;3.92;;
69207;SDS011;70114;47.690;8.898;2024-01-30T01:38:24;15.75;;;4.50;;
69207;SDS011;70114;47.690;8.898;2024-01-30T01:40:49;11.57;;;4.03;;
69207;SDS011;70114;47.690;8.898;2024-01-30T01:43:15;12.17;;;3.97;;
69207;SDS011;70114;47.690;8.898;2024-01-30T01:45:40;12.50;;;3.93;;
69207;SDS011;70114;47.690;8.898;2024-01-30T01:48:06;13.13;;;4.03;;
69207;SDS011;70114;47.690;8.898;2024-01-30T01:50:33;11.65;;;3.80;;
69207;SDS011;70114;47.690;8.898;2024-01-30T01:52:59;12.33;;;4.03;;
69207;SDS011;70114;47.690;8.898;2024-01-30T01:55:24;9.77;;;3.57;;
69207;SDS011;70114;47.690;8.898;2024-01-30T01:57:52;11.00;;;3.50;;
69207;SDS011;70114;47.690;8.898;2024-01-30T02:00:18;11.68;;;3.60;;
69207;SDS011;70114;47.690;8.898;2024-01-30T02:02:44;10.82;;;3.15;;
69207;SDS011;70114;47.690;8.898;2024-01-30T02:05:11;11.27;;;3.85;;
69207;SDS011;70114;47.690;8.898;2024-01-30T02:07:36;10.80;;;3.33;;
69207;SDS011;70114;47.690;8.898;2024-01-30T02:10:02;9.98;;;3.55;;
69207;SDS011;70114;47.690;8.898;2024-01-30T02:12:28;10.43;;;3.40;;
69207;SDS011;70114;47.690;8.898;2024-01-30T02:14:54;10.67;;;3.33;;
69207;SDS011;70114;47.690;8.898;2024-01-30T02:17:20;9.80;;;3.27;;
69207;SDS011;70114;47.690;8.898;2024-01-30T02:19:45;9.50;;;3.57;;
69207;SDS011;70114;47.690;8.898;2024-01-30T02:22:11;10.00;;;2.80;;
69207;SDS011;70114;47.690;8.898;2024-01-30T02:24:37;8.82;;;3.08;;
69207;SDS011;70114;47.690;8.898;2024-01-30T02:27:03;12.73;;;3.60;;
69207;SDS011;70114;47.690;8.898;2024-01-30T02:29:28;11.30;;;3.17;;
69207;SDS011;70114;47.690;8.898;2024-01-30T02:31:54;9.27;;;3.13;;
69207;SDS011;70114;47.690;8.898;2024-01-30T02:34:19;10.20;;;3.30;;
69207;SDS011;70114;47.690;8.898;2024-01-30T02:36:45;10.48;;;3.10;;
69207;SDS011;70114;47.690;8.898;2024-01-30T02:39:10;9.77;;;3.20;;
69207;SDS011;70114;47.690;8.898;2024-01-30T02:41:36;10.18;;;2.88;;
69207;SDS011;70114;47.690;8.898;2024-01-30T02:44:02;9.33;;;3.10;;
69207;SDS011;70114;47.690;8.898;2024-01-30T02:46:30;9.45;;;2.80;;
69207;SDS011;70114;47.690;8.898;2024-01-30T02:48:55;11.40;;;3.37;;
69207;SDS011;70114;47.690;8.898;2024-01-30T02:51:21;10.30;;;3.13;;
69207;SDS011;70114;47.690;8.898;2024-01-30T02:53:46;9.30;;;2.80;;
69207;SDS011;70114;47.690;8.898;2024-01-30T02:56:12;10.07;;;3.00;;
69207;SDS011;70114;47.690;8.898;2024-01-30T02:58:38;9.10;;;2.60;;
69207;SDS011;70114;47.690;8.898;2024-01-30T03:01:04;9.73;;;3.30;;
69207;SDS011;70114;47.690;8.898;2024-01-30T03:03:30;9.80;;;2.80;;
69207;SDS011;70114;47.690;8.898;2024-01-30T03:05:55;10.30;;;2.92;;
69207;SDS011;70114;47.690;8.898;2024-01-30T03:08:20;11.40;;;3.33;;
69207;SDS011;70114;47.690;8.898;2024-01-30T03:10:46;9.97;;;3.30;;
69207;SDS011;70114;47.690;8.898;2024-01-30T03:13:11;10.60;;;3.30;;
69207;SDS011;70114;47.690;8.898;2024-01-30T03:15:37;12.68;;;3.50;;
69207;SDS011;70114;47.690;8.898;2024-01-30T03:18:02;9.07;;;2.97;;
69207;SDS011;70114;47.690;8.898;2024-01-30T03:20:30;10.75;;;3.33;;
69207;SDS011;70114;47.690;8.898;2024-01-30T03:22:56;10.13;;;3.03;;
69207;SDS011;70114;47.690;8.898;2024-01-30T03:25:22;9.73;;;3.03;;
69207;SDS011;70114;47.690;8.898;2024-01-30T03:27:47;10.60;;;3.13;;
69207;SDS011;70114;47.690;8.898;2024-01-30T03:30:12;10.00;;;3.60;;
69207;SDS011;70114;47.690;8.898;2024-01-30T03:32:38;10.37;;;3.27;;
69207;SDS011;70114;47.690;8.898;2024-01-30T03:35:03;10.80;;;3.60;;
69207;SDS011;70114;47.690;8.898;2024-01-30T03:37:29;10.27;;;3.28;;
69207;SDS011;70114;47.690;8.898;2024-01-30T03:39:54;11.20;;;3.53;;
69207;SDS011;70114;47.690;8.898;2024-01-30T03:42:20;10.57;;;3.30;;
69207;SDS011;70114;47.690;8.898;2024-01-30T03:44:45;9.43;;;3.23;;
69207;SDS011;70114;47.690;8.898;2024-01-30T03:47:11;9.77;;;3.10;;
69207;SDS011;70114;47.690;8.898;2024-01-30T03:49:36;9.47;;;3.13;;
69207;SDS011;70114;47.690;8.898;2024-01-30T03:52:02;11.63;;;3.60;;
69207;SDS011;70114;47.690;8.898;2024-01-30T03:54:27;11.93;;;3.40;;
69207;SDS011;70114;47.690;8.898;2024-01-30T03:56:53;9.32;;;3.10;;
69207;SDS011;70114;47.690;8.898;2024-01-30T03:59:18;9.67;;;3.27;;
69207;SDS011;70114;47.690;8.898;2024-01-30T04:01:49;9.50;;;3.15;;
69207;SDS011;70114;47.690;8.898;2024-01-30T04:04:16;10.05;;;3.13;;
69207;SDS011;70114;47.690;8.898;2024-01-30T04:06:42;9.07;;;2.73;;
69207;SDS011;70114;47.690;8.898;2024-01-30T04:09:07;10.17;;;3.40;;
69207;SDS011;70114;47.690;8.898;2024-01-30T04:11:33;9.60;;;3.08;;
69207;SDS011;70114;47.690;8.898;2024-01-30T04:13:58;12.03;;;3.60;;
69207;SDS011;70114;47.690;8.898;2024-01-30T04:16:24;10.03;;;3.10;;
69207;SDS011;70114;47.690;8.898;2024-01-30T04:18:50;9.88;;;3.05;;
69207;SDS011;70114;47.690;8.898;2024-01-30T04:21:16;9.17;;;3.07;;
69207;SDS011;70114;47.690;8.898;2024-01-30T04:23:41;10.73;;;3.63;;
69207;SDS011;70114;47.690;8.898;2024-01-30T04:26:07;10.63;;;3.33;;
69207;SDS011;70114;47.690;8.898;2024-01-30T04:28:32;9.93;;;3.57;;
69207;SDS011;70114;47.690;8.898;2024-01-30T04:30:57;9.43;;;2.77;;
69207;SDS011;70114;47.690;8.898;2024-01-30T04:33:23;9.63;;;3.03;;
69207;SDS011;70114;47.690;8.898;2024-01-30T04:35:48;9.60;;;2.97;;
69207;SDS011;70114;47.690;8.898;2024-01-30T04:38:14;12.67;;;3.40;;
69207;SDS011;70114;47.690;8.898;2024-01-30T04:40:39;10.10;;;3.72;;
69207;SDS011;70114;47.690;8.898;2024-01-30T04:43:05;11.37;;;3.90;;
69207;SDS011;70114;47.690;8.898;2024-01-30T04:45:30;10.47;;;3.57;;
69207;SDS011;70114;47.690;8.898;2024-01-30T04:47:56;10.02;;;3.00;;
69207;SDS011;70114;47.690;8.898;2024-01-30T04:50:21;10.60;;;3.10;;
69207;SDS011;70114;47.690;8.898;2024-01-30T04:52:47;9.97;;;3.40;;
69207;SDS011;70114;47.690;8.898;2024-01-30T04:55:12;10.97;;;3.43;;
69207;SDS011;70114;47.690;8.898;2024-01-30T04:57:37;9.83;;;3.10;;
69207;SDS011;70114;47.690;8.898;2024-01-30T05:00:03;10.15;;;3.38;;
69207;SDS011;70114;47.690;8.898;2024-01-30T05:02:30;10.37;;;2.93;;
69207;SDS011;70114;47.690;8.898;2024-01-30T05:04:55;11.50;;;3.60;;
69207;SDS011;70114;47.690;8.898;2024-01-30T05:07:21;12.27;;;3.75;;
69207;SDS011;70114;47.690;8.898;2024-01-30T05:09:46;14.33;;;4.30;;
69207;SDS011;70114;47.690;8.898;2024-01-30T05:12:11;11.43;;;3.87;;
69207;SDS011;70114;47.690;8.898;2024-01-30T05:14:37;11.93;;;4.07;;
69207;SDS011;70114;47.690;8.898;2024-01-30T05:17:02;11.00;;;3.70;;
69207;SDS011;70114;47.690;8.898;2024-01-30T05:19:28;11.32;;;3.85;;
69207;SDS011;70114;47.690;8.898;2024-01-30T05:21:53;9.93;;;3.83;;
69207;SDS011;70114;47.690;8.898;2024-01-30T05:24:19;10.13;;;3.10;;
69207;SDS011;70114;47.690;8.898;2024-01-30T05:26:44;9.67;;;3.50;;
69207;SDS011;70114;47.690;8.898;2024-01-30T05:29:09;10.43;;;3.83;;
69207;SDS011;70114;47.690;8.898;2024-01-30T05:31:35;11.87;;;4.40;;
69207;SDS011;70114;47.690;8.898;2024-01-30T05:34:00;11.23;;;3.90;;
69207;SDS011;70114;47.690;8.898;2024-01-30T05:36:26;10.85;;;4.05;;
69207;SDS011;70114;47.690;8.898;2024-01-30T05:38:52;12.07;;;4.27;;
69207;SDS011;70114;47.690;8.898;2024-01-30T05:41:17;13.17;;;4.67;;
69207;SDS011;70114;47.690;8.898;2024-01-30T05:43:43;11.57;;;4.20;;
69207;SDS011;70114;47.690;8.898;2024-01-30T05:46:08;13.17;;;4.63;;
69207;SDS011;70114;47.690;8.898;2024-01-30T05:48:34;14.33;;;5.43;;
69207;SDS011;70114;47.690;8.898;2024-01-30T05:51:00;15.35;;;4.97;;
69207;SDS011;70114;47.690;8.898;2024-01-30T05:53:26;11.30;;;4.00;;
69207;SDS011;70114;47.690;8.898;2024-01-30T05:55:51;11.90;;;4.80;;
69207;SDS011;70114;47.690;8.898;2024-01-30T05:58:17;11.80;;;4.50;;
69207;SDS011;70114;47.690;8.898;2024-01-30T06:00:42;12.87;;;4.73;;
69207;SDS011;70114;47.690;8.898;2024-01-30T06:03:07;12.75;;;4.40;;
69207;SDS011;70114;47.690;8.898;2024-01-30T06:05:33;13.40;;;4.83;;
69207;SDS011;70114;47.690;8.898;2024-01-30T06:07:58;13.53;;;4.67;;
69207;SDS011;70114;47.690;8.898;2024-01-30T06:10:23;12.13;;;4.40;;
69207;SDS011;70114;47.690;8.898;2024-01-30T06:12:49;11.90;;;4.50;;
69207;SDS011;70114;47.690;8.898;2024-01-30T06:15:14;12.03;;;4.73;;
69207;SDS011;70114;47.690;8.898;2024-01-30T06:17:40;12.95;;;4.60;;
69207;SDS011;70114;47.690;8.898;2024-01-30T06:20:05;15.27;;;4.93;;
69207;SDS011;70114;47.690;8.898;2024-01-30T06:22:31;12.90;;;4.50;;
69207;SDS011;70114;47.690;8.898;2024-01-30T06:24:56;12.70;;;4.70;;
69207;SDS011;70114;47.690;8.898;2024-01-30T06:27:22;12.77;;;4.10;;
69207;SDS011;70114;47.690;8.898;2024-01-30T06:29:47;11.87;;;4.83;;
69207;SDS011;70114;47.690;8.898;2024-01-30T06:32:12;13.67;;;4.40;;
69207;SDS011;70114;47.690;8.898;2024-01-30T06:34:38;13.77;;;4.80;;
69207;SDS011;70114;47.690;8.898;2024-01-30T06:37:05;12.45;;;4.38;;
69207;SDS011;70114;47.690;8.898;2024-01-30T06:39:30;12.50;;;4.77;;
69207;SDS011;70114;47.690;8.898;2024-01-30T06:41:55;14.17;;;5.20;;
69207;SDS011;70114;47.690;8.898;2024-01-30T06:44:21;16.08;;;5.38;;
69207;SDS011;70114;47.690;8.898;2024-01-30T06:46:46;16.33;;;5.20;;
69207;SDS011;70114;47.690;8.898;2024-01-30T06:49:12;17.33;;;5.80;;
69207;SDS011;70114;47.690;8.898;2024-01-30T06:51:37;13.30;;;5.03;;
69207;SDS011;70114;47.690;8.898;2024-01-30T06:54:02;13.57;;;5.53;;
69207;SDS011;70114;47.690;8.898;2024-01-30T06:56:28;13.73;;;5.22;;
69207;SDS011;70114;47.690;8.898;2024-01-30T06:58:54;14.87;;;5.50;;
69207;SDS011;70114;47.690;8.898;2024-01-30T07:01:19;14.63;;;5.60;;
69207;SDS011;70114;47.690;8.898;2024-01-30T07:03:44;15.20;;;5.68;;
69207;SDS011;70114;47.690;8.898;2024-01-30T07:06:10;17.37;;;7.37;;
69207;SDS011;70114;47.690;8.898;2024-01-30T07:08:38;17.27;;;6.03;;
69207;SDS011;70114;47.690;8.898;2024-01-30T07:11:04;15.10;;;5.95;;
69207;SDS011;70114;47.690;8.898;2024-01-30T07:13:31;17.27;;;6.05;;
69207;SDS011;70114;47.690;8.898;2024-01-30T07:15:56;18.37;;;6.33;;
69207;SDS011;70114;47.690;8.898;2024-01-30T07:18:22;17.73;;;7.32;;
69207;SDS011;70114;47.690;8.898;2024-01-30T07:20:47;16.50;;;6.03;;
69207;SDS011;70114;47.690;8.898;2024-01-30T07:23:14;17.33;;;6.63;;
69207;SDS011;70114;47.690;8.898;2024-01-30T07:25:41;15.07;;;6.07;;
69207;SDS011;70114;47.690;8.898;2024-01-30T07:28:10;15.93;;;6.28;;
69207;SDS011;70114;47.690;8.898;2024-01-30T07:30:36;18.83;;;6.50;;
69207;SDS011;70114;47.690;8.898;2024-01-30T07:33:02;19.02;;;5.93;;
69207;SDS011;70114;47.690;8.898;2024-01-30T07:35:27;17.92;;;6.40;;
69207;SDS011;70114;47.690;8.898;2024-01-30T07:37:52;17.17;;;6.00;;
69207;SDS011;70114;47.690;8.898;2024-01-30T07:40:18;17.10;;;6.37;;
69207;SDS011;70114;47.690;8.898;2024-01-30T07:42:43;17.23;;;6.77;;
69207;SDS011;70114;47.690;8.898;2024-01-30T07:45:09;16.23;;;6.30;;
69207;SDS011;70114;47.690;8.898;2024-01-30T07:47:34;17.88;;;6.45;;
69207;SDS011;70114;47.690;8.898;2024-01-30T07:50:00;16.63;;;6.50;;
69207;SDS011;70114;47.690;8.898;2024-01-30T07:52:25;17.00;;;6.80;;
69207;SDS011;70114;47.690;8.898;2024-01-30T07:54:51;19.93;;;7.30;;
69207;SDS011;70114;47.690;8.898;2024-01-30T07:57:16;19.30;;;7.30;;
69207;SDS011;70114;47.690;8.898;2024-01-30T07:59:43;19.67;;;7.35;;
69207;SDS011;70114;47.690;8.898;2024-01-30T08:02:09;23.77;;;8.97;;
69207;SDS011;70114;47.690;8.898;2024-01-30T08:04:35;18.58;;;7.60;;
69207;SDS011;70114;47.690;8.898;2024-01-30T08:07:01;19.57;;;7.27;;
69207;SDS011;70114;47.690;8.898;2024-01-30T08:09:26;17.77;;;7.47;;
69207;SDS011;70114;47.690;8.898;2024-01-30T08:11:52;19.50;;;6.60;;
69207;SDS011;70114;47.690;8.898;2024-01-30T08:14:18;18.53;;;7.20;;
69207;SDS011;70114;47.690;8.898;2024-01-30T08:16:43;17.45;;;6.25;;
69207;SDS011;70114;47.690;8.898;2024-01-30T08:19:08;17.33;;;6.57;;
69207;SDS011;70114;47.690;8.898;2024-01-30T08:21:34;15.03;;;5.93;;
69207;SDS011;70114;47.690;8.898;2024-01-30T08:24:02;20.70;;;6.53;;
69207;SDS011;70114;47.690;8.898;2024-01-30T08:26:28;16.73;;;5.72;;
69207;SDS011;70114;47.690;8.898;2024-01-30T08:28:54;14.20;;;5.33;;
69207;SDS011;70114;47.690;8.898;2024-01-30T08:31:19;16.30;;;6.20;;
69207;SDS011;70114;47.690;8.898;2024-01-30T08:33:44;18.57;;;6.90;;
69207;SDS011;70114;47.690;8.898;2024-01-30T08:36:10;21.53;;;7.90;;
69207;SDS011;70114;47.690;8.898;2024-01-30T08:38:35;18.30;;;7.40;;
69207;SDS011;70114;47.690;8.898;2024-01-30T08:41:00;20.20;;;7.65;;
69207;SDS011;70114;47.690;8.898;2024-01-30T08:43:26;20.97;;;8.50;;
69207;SDS011;70114;47.690;8.898;2024-01-30T08:45:51;25.37;;;9.03;;
69207;SDS011;70114;47.690;8.898;2024-01-30T08:48:16;27.10;;;10.17;;
69207;SDS011;70114;47.690;8.898;2024-01-30T08:50:42;25.17;;;10.23;;
69207;SDS011;70114;47.690;8.898;2024-01-30T08:53:08;23.30;;;8.97;;
69207;SDS011;70114;47.690;8.898;2024-01-30T08:55:33;19.77;;;7.67;;
69207;SDS011;70114;47.690;8.898;2024-01-30T08:57:59;18.40;;;7.27;;
69207;SDS011;70114;47.690;8.898;2024-01-30T09:00:24;15.30;;;5.88;;
69207;SDS011;70114;47.690;8.898;2024-01-30T09:02:50;13.57;;;4.87;;
69207;SDS011;70114;47.690;8.898;2024-01-30T09:05:15;12.30;;;5.00;;
69207;SDS011;70114;47.690;8.898;2024-01-30T09:07:40;13.97;;;5.00;;
69207;SDS011;70114;47.690;8.898;2024-01-30T09:10:06;13.18;;;4.75;;
69207;SDS011;70114;47.690;8.898;2024-01-30T09:12:32;14.27;;;5.13;;
69207;SDS011;70114;47.690;8.898;2024-01-30T09:14:57;13.07;;;5.10;;
69207;SDS011;70114;47.690;8.898;2024-01-30T09:17:22;11.32;;;4.35;;
69207;SDS011;70114;47.690;8.898;2024-01-30T09:19:48;12.60;;;5.10;;
69207;SDS011;70114;47.690;8.898;2024-01-30T09:22:13;11.03;;;4.70;;
69207;SDS011;70114;47.690;8.898;2024-01-30T09:24:39;11.10;;;4.23;;
69207;SDS011;70114;47.690;8.898;2024-01-30T09:27:05;12.07;;;4.53;;
69207;SDS011;70114;47.690;8.898;2024-01-30T09:29:31;11.70;;;4.80;;
69207;SDS011;70114;47.690;8.898;2024-01-30T09:31:58;13.45;;;4.97;;
69207;SDS011;70114;47.690;8.898;2024-01-30T09:34:23;10.38;;;4.40;;
69207;SDS011;70114;47.690;8.898;2024-01-30T09:36:49;12.40;;;4.80;;
69207;SDS011;70114;47.690;8.898;2024-01-30T09:39:14;11.37;;;4.50;;
69207;SDS011;70114;47.690;8.898;2024-01-30T09:41:44;13.38;;;5.00;;
69207;SDS011;70114;47.690;8.898;2024-01-30T09:44:39;13.83;;;5.63;;
69207;SDS011;70114;47.690;8.898;2024-01-30T09:47:08;13.73;;;5.63;;
69207;SDS011;70114;47.690;8.898;2024-01-30T09:49:35;12.63;;;5.00;;
69207;SDS011;70114;47.690;8.898;2024-01-30T09:52:01;11.33;;;4.90;;
69207;SDS011;70114;47.690;8.898;2024-01-30T09:54:29;13.25;;;5.05;;
69207;SDS011;70114;47.690;8.898;2024-01-30T09:56:56;14.45;;;5.38;;
69207;SDS011;70114;47.690;8.898;2024-01-30T09:59:21;13.47;;;5.37;;
69207;SDS011;70114;47.690;8.898;2024-01-30T10:01:46;15.90;;;5.47;;
69207;SDS011;70114;47.690;8.898;2024-01-30T10:04:12;17.73;;;6.40;;
69207;SDS011;70114;47.690;8.898;2024-01-30T10:06:38;14.10;;;5.63;;
69207;SDS011;70114;47.690;8.898;2024-01-30T10:09:05;14.80;;;5.13;;
69207;SDS011;70114;47.690;8.898;2024-01-30T10:11:30;16.10;;;6.37;;
69207;SDS011;70114;47.690;8.898;2024-01-30T10:13:56;15.57;;;5.53;;
69207;SDS011;70114;47.690;8.898;2024-01-30T10:16:21;17.27;;;7.00;;
69207;SDS011;70114;47.690;8.898;2024-01-30T10:18:46;14.07;;;5.20;;
69207;SDS011;70114;47.690;8.898;2024-01-30T10:21:12;16.15;;;5.75;;
69207;SDS011;70114;47.690;8.898;2024-01-30T10:23:38;10.93;;;4.53;;
69207;SDS011;70114;47.690;8.898;2024-01-30T10:26:07;13.27;;;4.47;;
69207;SDS011;70114;47.690;8.898;2024-01-30T10:28:33;11.95;;;4.65;;
69207;SDS011;70114;47.690;8.898;2024-01-30T10:30:59;9.17;;;3.67;;
69207;SDS011;70114;47.690;8.898;2024-01-30T10:33:25;10.85;;;4.00;;
69207;SDS011;70114;47.690;8.898;2024-01-30T10:35:53;12.77;;;4.03;;
69207;SDS011;70114;47.690;8.898;2024-01-30T10:38:24;11.00;;;4.00;;
69207;SDS011;70114;47.690;8.898;2024-01-30T10:40:53;11.70;;;4.10;;
69207;SDS011;70114;47.690;8.898;2024-01-30T10:43:22;14.73;;;4.30;;
69207;SDS011;70114;47.690;8.898;2024-01-30T10:45:49;11.68;;;4.32;;
69207;SDS011;70114;47.690;8.898;2024-01-30T10:48:17;10.95;;;4.55;;
69207;SDS011;70114;47.690;8.898;2024-01-30T10:50:45;10.35;;;4.18;;
69207;SDS011;70114;47.690;8.898;2024-01-30T10:53:10;11.40;;;4.20;;
69207;SDS011;70114;47.690;8.898;2024-01-30T10:55:38;12.43;;;4.75;;
69207;SDS011;70114;47.690;8.898;2024-01-30T10:58:04;11.45;;;4.55;;
69207;SDS011;70114;47.690;8.898;2024-01-30T11:00:30;10.82;;;4.72;;
69207;SDS011;70114;47.690;8.898;2024-01-30T11:02:58;10.90;;;4.40;;
69207;SDS011;70114;47.690;8.898;2024-01-30T11:05:24;12.90;;;4.43;;
69207;SDS011;70114;47.690;8.898;2024-01-30T11:07:51;12.20;;;4.40;;
69207;SDS011;70114;47.690;8.898;2024-01-30T11:10:16;11.27;;;4.40;;
69207;SDS011;70114;47.690;8.898;2024-01-30T11:12:42;11.43;;;4.97;;
69207;SDS011;70114;47.690;8.898;2024-01-30T11:17:41;12.07;;;5.00;;
69207;SDS011;70114;47.690;8.898;2024-01-30T11:20:16;11.68;;;4.40;;
69207;SDS011;70114;47.690;8.898;2024-01-30T11:22:45;12.13;;;5.00;;
69207;SDS011;70114;47.690;8.898;2024-01-30T11:25:14;13.30;;;4.60;;
69207;SDS011;70114;47.690;8.898;2024-01-30T11:27:41;11.20;;;4.50;;
69207;SDS011;70114;47.690;8.898;2024-01-30T11:30:08;14.88;;;5.20;;
69207;SDS011;70114;47.690;8.898;2024-01-30T11:32:33;10.80;;;4.60;;
69207;SDS011;70114;47.690;8.898;2024-01-30T11:34:59;12.55;;;4.30;;
69207;SDS011;70114;47.690;8.898;2024-01-30T11:37:25;14.70;;;5.33;;
69207;SDS011;70114;47.690;8.898;2024-01-30T11:39:53;11.82;;;4.68;;
69207;SDS011;70114;47.690;8.898;2024-01-30T11:42:19;12.00;;;4.83;;
69207;SDS011;70114;47.690;8.898;2024-01-30T11:44:49;11.35;;;4.78;;
69207;SDS011;70114;47.690;8.898;2024-01-30T11:47:14;14.48;;;5.38;;
69207;SDS011;70114;47.690;8.898;2024-01-30T11:49:40;11.70;;;5.03;;
69207;SDS011;70114;47.690;8.898;2024-01-30T11:52:05;11.30;;;5.20;;
69207;SDS011;70114;47.690;8.898;2024-01-30T11:54:30;12.13;;;4.85;;
69207;SDS011;70114;47.690;8.898;2024-01-30T11:56:56;13.33;;;5.07;;
69207;SDS011;70114;47.690;8.898;2024-01-30T11:59:22;12.93;;;4.80;;
69207;SDS011;70114;47.690;8.898;2024-01-30T12:01:47;12.68;;;4.97;;
69207;SDS011;70114;47.690;8.898;2024-01-30T12:04:13;12.23;;;4.80;;
69207;SDS011;70114;47.690;8.898;2024-01-30T12:06:38;12.57;;;4.87;;
69207;SDS011;70114;47.690;8.898;2024-01-30T12:09:05;11.60;;;4.22;;
69207;SDS011;70114;47.690;8.898;2024-01-30T12:11:32;11.88;;;4.80;;
69207;SDS011;70114;47.690;8.898;2024-01-30T12:13:58;13.03;;;4.83;;
69207;SDS011;70114;47.690;8.898;2024-01-30T12:16:23;11.57;;;4.57;;
69207;SDS011;70114;47.690;8.898;2024-01-30T12:18:49;11.87;;;4.60;;
69207;SDS011;70114;47.690;8.898;2024-01-30T12:21:24;12.50;;;4.35;;
69207;SDS011;70114;47.690;8.898;2024-01-30T12:23:49;11.17;;;4.60;;
69207;SDS011;70114;47.690;8.898;2024-01-30T12:26:15;12.03;;;4.63;;
69207;SDS011;70114;47.690;8.898;2024-01-30T12:28:50;12.07;;;4.50;;
69207;SDS011;70114;47.690;8.898;2024-01-30T12:31:15;11.73;;;4.55;;
69207;SDS011;70114;47.690;8.898;2024-01-30T12:33:41;12.15;;;4.60;;
69207;SDS011;70114;47.690;8.898;2024-01-30T12:36:06;11.60;;;4.50;;
69207;SDS011;70114;47.690;8.898;2024-01-30T12:38:32;11.00;;;4.37;;
69207;SDS011;70114;47.690;8.898;2024-01-30T12:40:57;11.30;;;4.38;;
69207;SDS011;70114;47.690;8.898;2024-01-30T12:43:26;10.57;;;4.40;;
69207;SDS011;70114;47.690;8.898;2024-01-30T12:45:54;10.68;;;4.45;;
69207;SDS011;70114;47.690;8.898;2024-01-30T12:48:20;14.35;;;5.05;;
69207;SDS011;70114;47.690;8.898;2024-01-30T12:50:45;12.50;;;5.40;;
69207;SDS011;70114;47.690;8.898;2024-01-30T12:53:11;16.07;;;6.50;;
69207;SDS011;70114;47.690;8.898;2024-01-30T12:55:37;13.30;;;5.57;;
69207;SDS011;70114;47.690;8.898;2024-01-30T12:58:03;11.27;;;4.67;;
69207;SDS011;70114;47.690;8.898;2024-01-30T13:00:28;12.55;;;4.97;;
69207;SDS011;70114;47.690;8.898;2024-01-30T13:02:54;11.50;;;4.47;;
69207;SDS011;70114;47.690;8.898;2024-01-30T13:05:19;13.17;;;5.70;;
69207;SDS011;70114;47.690;8.898;2024-01-30T13:07:45;15.43;;;5.57;;
69207;SDS011;70114;47.690;8.898;2024-01-30T13:10:11;15.93;;;6.10;;
69207;SDS011;70114;47.690;8.898;2024-01-30T13:12:36;11.80;;;4.77;;
69207;SDS011;70114;47.690;8.898;2024-01-30T13:15:03;13.48;;;4.95;;
69207;SDS011;70114;47.690;8.898;2024-01-30T13:17:30;10.73;;;4.57;;
69207;SDS011;70114;47.690;8.898;2024-01-30T13:19:55;13.17;;;5.40;;
69207;SDS011;70114;47.690;8.898;2024-01-30T13:22:21;14.50;;;5.25;;
69207;SDS011;70114;47.690;8.898;2024-01-30T13:24:46;11.17;;;5.17;;
69207;SDS011;70114;47.690;8.898;2024-01-30T13:27:12;12.32;;;4.70;;
69207;SDS011;70114;47.690;8.898;2024-01-30T13:29:37;12.43;;;5.00;;
69207;SDS011;70114;47.690;8.898;2024-01-30T13:32:03;11.27;;;4.67;;
69207;SDS011;70114;47.690;8.898;2024-01-30T13:34:29;11.30;;;4.70;;
69207;SDS011;70114;47.690;8.898;2024-01-30T13:36:54;12.47;;;4.70;;
69207;SDS011;70114;47.690;8.898;2024-01-30T13:39:20;11.73;;;5.13;;
69207;SDS011;70114;47.690;8.898;2024-01-30T13:41:45;12.80;;;5.50;;
69207;SDS011;70114;47.690;8.898;2024-01-30T13:44:10;12.43;;;5.27;;
69207;SDS011;70114;47.690;8.898;2024-01-30T13:46:36;11.65;;;5.20;;
69207;SDS011;70114;47.690;8.898;2024-01-30T13:49:03;12.15;;;5.40;;
69207;SDS011;70114;47.690;8.898;2024-01-30T13:51:28;13.00;;;5.60;;
69207;SDS011;70114;47.690;8.898;2024-01-30T13:53:53;14.83;;;6.07;;
69207;SDS011;70114;47.690;8.898;2024-01-30T13:56:19;11.80;;;5.90;;
69207;SDS011;70114;47.690;8.898;2024-01-30T13:58:47;13.02;;;5.78;;
69207;SDS011;70114;47.690;8.898;2024-01-30T14:01:14;14.30;;;6.20;;
69207;SDS011;70114;47.690;8.898;2024-01-30T14:03:39;13.03;;;6.37;;
69207;SDS011;70114;47.690;8.898;2024-01-30T14:06:04;13.50;;;6.30;;
69207;SDS011;70114;47.690;8.898;2024-01-30T14:08:30;14.07;;;6.78;;
69207;SDS011;70114;47.690;8.898;2024-01-30T14:10:56;13.15;;;5.68;;
69207;SDS011;70114;47.690;8.898;2024-01-30T14:13:22;14.17;;;6.00;;
69207;SDS011;70114;47.690;8.898;2024-01-30T14:15:48;12.97;;;5.17;;
69207;SDS011;70114;47.690;8.898;2024-01-30T14:18:14;11.25;;;5.25;;
69207;SDS011;70114;47.690;8.898;2024-01-30T14:20:40;12.32;;;5.38;;
69207;SDS011;70114;47.690;8.898;2024-01-30T14:23:05;12.10;;;5.43;;
69207;SDS011;70114;47.690;8.898;2024-01-30T14:25:31;12.75;;;5.40;;
69207;SDS011;70114;47.690;8.898;2024-01-30T14:27:57;12.47;;;5.63;;
69207;SDS011;70114;47.690;8.898;2024-01-30T14:30:22;12.40;;;5.67;;